Time;durP1;ratioP1;P1;durP2;ratioP2;P2;SDS_P1;SDS_P2;PMS_P1;PMS_P2;Temp;Humidity;BMP_temperature;BMP_pressure;BME280_temperature;BME280_humidity;BME280_pressure;Samples;Min_cycle;Max_cycle;Signal;HPM_P1;HPM_P2
2021/01/30 00:01:01;;;;;;;;;;;;;;;;;;5117358;28;19981;-63
2021/01/30 00:03:27;;;;;;;;;;;;;;;;;;5117620;28;19914;-62
2021/01/30 00:05:53;;;;;;;;;;;;;;;;;;5117223;28;19910;-63
2021/01/30 00:08:19;;;;;;;;;;;;;;;;;;5117544;28;20374;-63
2021/01/30 00:10:45;;;;;;;;;;;;;;;;;;5116959;28;19952;-62
2021/01/30 00:13:11;;;;;;;;;;;;;;;;;;5117503;28;19933;-63
2021/01/30 00:15:37;;;;;;;;;;;;;;;;;;5117276;28;20429;-62
2021/01/30 00:18:03;;;;;;;;;;;;;;;;;;5117320;28;19908;-62
2021/01/30 00:20:29;;;;;;;;;;;;;;;;;;5117001;28;20263;-63
2021/01/30 00:22:54;;;;;;;;;;;;;;;;;;5117180;28;19918;-62
2021/01/30 00:25:20;;;;;;;;;;;;;;;;;;5116795;28;20148;-62
2021/01/30 00:27:46;;;;;;;;;;;;;;;;;;5116968;28;19918;-62
2021/01/30 00:30:12;;;;;;;;;;;;;;;;;;5116738;28;19918;-63
2021/01/30 00:32:38;;;;;;;;;;;;;;;;;;5116764;28;19927;-62
2021/01/30 00:35:04;;;;;;;;;;;;;;;;;;5116680;28;19953;-61
2021/01/30 00:37:30;;;;;;;;;;;;;;;;;;5116712;28;19944;-63
2021/01/30 00:39:56;;;;;;;;;;;;;;;;;;5116937;28;19925;-62
2021/01/30 00:42:22;;;;;;;;;;;;;;;;;;5116575;28;19916;-62
2021/01/30 00:44:48;;;;;;;;;;;;;;;;;;5116777;28;20009;-62
2021/01/30 00:47:14;;;;;;;;;;;;;;;;;;5116482;28;19938;-63
2021/01/30 00:49:40;;;;;;;;;;;;;;;;;;5116532;28;19907;-63
2021/01/30 00:52:06;;;;;;;;;;;;;;;;;;5116386;28;19908;-62
2021/01/30 00:54:32;;;;;;;;;;;;;;;;;;5116599;28;19918;-62
2021/01/30 00:56:58;;;;;;;;;;;;;;;;;;5116204;28;20387;-63
2021/01/30 00:59:24;;;;;;;;;;;;;;;;;;5116301;28;19916;-62
2021/01/30 01:01:50;;;;;;;;;;;;;;;;;;5116161;28;19920;-62
2021/01/30 01:04:16;;;;;;;;;;;;;;;;;;5115871;28;19965;-62
2021/01/30 01:06:42;;;;;;;;;;;;;;;;;;5115945;28;20332;-62
2021/01/30 01:09:08;;;;;;;;;;;;;;;;;;5115981;28;19929;-62
2021/01/30 01:11:34;;;;;;;;;;;;;;;;;;5116084;28;19950;-63
2021/01/30 01:14:00;;;;;;;;;;;;;;;;;;5116063;28;20406;-62
2021/01/30 01:16:26;;;;;;;;;;;;;;;;;;5115845;28;20036;-63
2021/01/30 01:18:52;;;;;;;;;;;;;;;;;;5115875;28;19986;-63
2021/01/30 01:21:18;;;;;;;;;;;;;;;;;;5115868;28;19948;-63
2021/01/30 01:23:44;;;;;;;;;;;;;;;;;;5116063;28;19948;-62
2021/01/30 01:26:10;;;;;;;;;;;;;;;;;;5115816;28;19918;-63
2021/01/30 01:28:36;;;;;;;;;;;;;;;;;;5115727;28;19915;-62
2021/01/30 01:31:02;;;;;;;;;;;;;;;;;;5115866;28;19965;-62
2021/01/30 01:33:28;;;;;;;;;;;;;;;;;;5115681;28;19914;-63
2021/01/30 01:35:54;;;;;;;;;;;;;;;;;;5115497;28;19927;-62
2021/01/30 01:38:20;;;;;;;;;;;;;;;;;;5115690;28;19907;-62
2021/01/30 01:40:46;;;;;;;;;;;;;;;;;;5115434;28;20355;-62
2021/01/30 01:43:12;;;;;;;;;;;;;;;;;;5115615;28;20382;-63
2021/01/30 01:45:38;;;;;;;;;;;;;;;;;;5115391;28;19914;-63
2021/01/30 01:48:04;;;;;;;;;;;;;;;;;;5115180;28;19923;-63
2021/01/30 01:50:30;;;;;;;;;;;;;;;;;;5115598;28;19925;-63
2021/01/30 01:52:55;;;;;;;;;;;;;;;;;;5115661;28;19927;-63
2021/01/30 01:55:21;;;;;;;;;;;;;;;;;;5115067;28;20355;-63
2021/01/30 01:57:47;;;;;;;;;;;;;;;;;;5115120;28;19984;-63
2021/01/30 02:00:13;;;;;;;;;;;;;;;;;;5115359;28;20450;-62
2021/01/30 02:02:39;;;;;;;;;;;;;;;;;;5115015;28;20287;-63
2021/01/30 02:05:05;;;;;;;;;;;;;;;;;;5115072;28;20016;-63
2021/01/30 02:07:31;;;;;;;;;;;;;;;;;;5114910;28;19919;-63
2021/01/30 02:09:57;;;;;;;;;;;;;;;;;;5114686;28;20016;-63
2021/01/30 02:12:24;;;;;;;;;;;;;;;;;;5115052;28;19957;-62
2021/01/30 02:14:50;;;;;;;;;;;;;;;;;;5114830;28;20329;-62
2021/01/30 02:17:16;;;;;;;;;;;;;;;;;;5114056;28;19948;-62
2021/01/30 02:19:42;;;;;;;;;;;;;;;;;;5115020;28;20426;-62
2021/01/30 02:22:08;;;;;;;;;;;;;;;;;;5114558;28;19918;-62
2021/01/30 02:24:34;;;;;;;;;;;;;;;;;;5114608;28;20031;-63
2021/01/30 02:27:00;;;;;;;;;;;;;;;;;;5114904;28;19908;-62
2021/01/30 02:29:26;;;;;;;;;;;;;;;;;;5114792;28;19920;-62
2021/01/30 02:31:52;;;;;;;;;;;;;;;;;;5114473;28;20322;-62
2021/01/30 02:34:18;;;;;;;;;;;;;;;;;;5114330;28;19942;-62
2021/01/30 02:36:44;;;;;;;;;;;;;;;;;;5114396;28;20056;-63
2021/01/30 02:39:10;;;;;;;;;;;;;;;;;;5114401;28;20506;-63
2021/01/30 02:41:36;;;;;;;;;;;;;;;;;;5114341;28;19976;-62
2021/01/30 02:44:02;;;;;;;;;;;;;;;;;;5114522;28;19957;-62
2021/01/30 02:46:28;;;;;;;;;;;;;;;;;;5114581;28;20312;-63
2021/01/30 02:48:54;;;;;;;;;;;;;;;;;;5114289;28;19914;-63
2021/01/30 02:51:20;;;;;;;;;;;;;;;;;;5114567;28;19922;-62
2021/01/30 02:53:46;;;;;;;;;;;;;;;;;;5114162;28;20317;-62
2021/01/30 02:56:12;;;;;;;;;;;;;;;;;;5114505;28;19904;-62
2021/01/30 02:58:38;;;;;;;;;;;;;;;;;;5114428;28;20323;-62
2021/01/30 03:01:04;;;;;;;;;;;;;;;;;;5114160;28;19920;-62
2021/01/30 03:03:30;;;;;;;;;;;;;;;;;;5114134;28;19918;-62
2021/01/30 03:05:56;;;;;;;;;;;;;;;;;;5114162;28;19921;-62
2021/01/30 03:08:22;;;;;;;;;;;;;;;;;;5113940;28;20001;-62
2021/01/30 03:10:48;;;;;;;;;;;;;;;;;;5113873;28;19961;-63
2021/01/30 03:13:15;;;;;;;;;;;;;;;;;;5113932;28;19919;-63
2021/01/30 03:15:40;;;;;;;;;;;;;;;;;;5114368;28;20015;-63
2021/01/30 03:18:06;;;;;;;;;;;;;;;;;;5114181;28;20340;-62
2021/01/30 03:20:32;;;;;;;;;;;;;;;;;;5114028;28;19965;-62
2021/01/30 03:22:58;;;;;;;;;;;;;;;;;;5114163;28;19956;-62
2021/01/30 03:25:24;;;;;;;;;;;;;;;;;;5095783;28;19940;-63
2021/01/30 03:27:50;;;;;;;;;;;;;;;;;;5115032;28;20312;-62
2021/01/30 03:30:16;;;;;;;;;;;;;;;;;;5117932;28;20011;-62
2021/01/30 03:32:42;;;;;;;;;;;;;;;;;;5118261;28;19931;-62
2021/01/30 03:35:09;;;;;;;;;;;;;;;;;;5117892;28;20432;-62
2021/01/30 03:37:35;;;;;;;;;;;;;;;;;;5117807;28;20401;-63
2021/01/30 03:40:01;;;;;;;;;;;;;;;;;;5117899;28;19944;-62
2021/01/30 03:42:27;;;;;;;;;;;;;;;;;;5117697;28;19920;-63
2021/01/30 03:44:52;;;;;;;;;;;;;;;;;;5118136;28;19927;-62
2021/01/30 03:47:18;;;;;;;;;;;;;;;;;;5117648;28;19910;-62
2021/01/30 03:49:44;;;;;;;;;;;;;;;;;;5117826;28;19985;-62
2021/01/30 03:52:10;;;;;;;;;;;;;;;;;;5117575;28;20400;-62
2021/01/30 03:54:36;;;;;;;;;;;;;;;;;;5117441;28;19946;-63
2021/01/30 03:57:02;;;;;;;;;;;;;;;;;;5117447;28;19988;-62
2021/01/30 03:59:28;;;;;;;;;;;;;;;;;;5117370;28;19925;-62
2021/01/30 04:01:54;;;;;;;;;;;;;;;;;;5117484;28;19922;-62
2021/01/30 04:04:20;;;;;;;;;;;;;;;;;;5117449;28;19953;-62
2021/01/30 04:06:46;;;;;;;;;;;;;;;;;;5117344;28;20275;-63
2021/01/30 04:09:12;;;;;;;;;;;;;;;;;;5117538;28;19934;-62
2021/01/30 04:11:38;;;;;;;;;;;;;;;;;;5117225;28;19922;-63
2021/01/30 04:14:04;;;;;;;;;;;;;;;;;;5117084;28;19955;-62
2021/01/30 04:16:30;;;;;;;;;;;;;;;;;;5117129;28;19918;-62
2021/01/30 04:18:56;;;;;;;;;;;;;;;;;;5117123;28;19937;-63
2021/01/30 04:21:22;;;;;;;;;;;;;;;;;;5117061;28;20358;-63
2021/01/30 04:23:48;;;;;;;;;;;;;;;;;;5117042;28;19944;-62
2021/01/30 04:26:14;;;;;;;;;;;;;;;;;;5117283;28;20298;-62
2021/01/30 04:28:40;;;;;;;;;;;;;;;;;;5116837;28;19936;-63
2021/01/30 04:31:06;;;;;;;;;;;;;;;;;;5116836;28;19940;-63
2021/01/30 04:33:32;;;;;;;;;;;;;;;;;;5117001;28;19961;-62
2021/01/30 04:35:58;;;;;;;;;;;;;;;;;;5116661;28;20322;-63
2021/01/30 04:38:24;;;;;;;;;;;;;;;;;;5116946;28;19918;-63
2021/01/30 04:40:50;;;;;;;;;;;;;;;;;;5115606;28;19959;-63
2021/01/30 04:43:16;;;;;;;;;;;;;;;;;;5116601;28;20273;-63
2021/01/30 04:45:42;;;;;;;;;;;;;;;;;;5116514;28;19959;-62
2021/01/30 04:48:08;;;;;;;;;;;;;;;;;;5116616;28;19904;-63
2021/01/30 04:50:33;;;;;;;;;;;;;;;;;;5116639;28;20007;-63
2021/01/30 04:52:59;;;;;;;;;;;;;;;;;;5116660;28;20386;-62
2021/01/30 04:55:25;;;;;;;;;;;;;;;;;;5116224;28;20101;-62
2021/01/30 04:57:51;;;;;;;;;;;;;;;;;;5116293;28;19904;-62
2021/01/30 05:00:17;;;;;;;;;;;;;;;;;;5116507;28;19981;-63
2021/01/30 05:02:43;;;;;;;;;;;;;;;;;;5116210;28;19918;-62
2021/01/30 05:05:09;;;;;;;;;;;;;;;;;;5116048;28;19988;-63
2021/01/30 05:07:35;;;;;;;;;;;;;;;;;;5116086;28;19926;-62
2021/01/30 05:10:01;;;;;;;;;;;;;;;;;;5116120;28;20439;-62
2021/01/30 05:12:27;;;;;;;;;;;;;;;;;;5115999;28;19973;-62
2021/01/30 05:14:53;;;;;;;;;;;;;;;;;;5115708;28;19912;-62
2021/01/30 05:17:19;;;;;;;;;;;;;;;;;;5115984;28;19988;-63
2021/01/30 05:19:45;;;;;;;;;;;;;;;;;;5115839;28;20418;-62
2021/01/30 05:22:11;;;;;;;;;;;;;;;;;;5115868;28;19904;-62
2021/01/30 05:24:37;;;;;;;;;;;;;;;;;;5116262;28;19977;-62
2021/01/30 05:27:03;;;;;;;;;;;;;;;;;;5115757;28;19920;-63
2021/01/30 05:29:29;;;;;;;;;;;;;;;;;;5115594;28;19982;-62
2021/01/30 05:31:55;;;;;;;;;;;;;;;;;;5115980;28;19920;-63
2021/01/30 05:34:21;;;;;;;;;;;;;;;;;;5115759;28;19968;-62
2021/01/30 05:36:47;;;;;;;;;;;;;;;;;;5115558;28;20273;-63
2021/01/30 05:39:13;;;;;;;;;;;;;;;;;;5115570;28;19945;-62
2021/01/30 05:41:39;;;;;;;;;;;;;;;;;;5115385;28;19943;-63
2021/01/30 05:44:05;;;;;;;;;;;;;;;;;;5115437;28;19958;-62
2021/01/30 05:46:31;;;;;;;;;;;;;;;;;;5115506;28;19920;-62
2021/01/30 05:48:57;;;;;;;;;;;;;;;;;;5115607;28;20449;-63
2021/01/30 05:51:23;;;;;;;;;;;;;;;;;;5096724;28;19920;-62
2021/01/30 05:53:49;;;;;;;;;;;;;;;;;;5115143;28;20415;-63
2021/01/30 05:56:15;;;;;;;;;;;;;;;;;;5115382;28;19928;-62
2021/01/30 05:58:41;;;;;;;;;;;;;;;;;;5115077;28;19920;-62
2021/01/30 06:01:07;;;;;;;;;;;;;;;;;;5115058;28;19946;-63
2021/01/30 06:03:33;;;;;;;;;;;;;;;;;;5115312;28;19918;-62
2021/01/30 06:05:59;;;;;;;;;;;;;;;;;;5114819;28;19910;-63
2021/01/30 06:08:25;;;;;;;;;;;;;;;;;;5115062;28;19918;-62
2021/01/30 06:10:51;;;;;;;;;;;;;;;;;;5114628;28;19958;-62
2021/01/30 06:13:17;;;;;;;;;;;;;;;;;;5114930;28;19918;-62
2021/01/30 06:15:43;;;;;;;;;;;;;;;;;;5114673;28;20424;-62
2021/01/30 06:18:09;;;;;;;;;;;;;;;;;;5114991;28;19920;-62
2021/01/30 06:20:35;;;;;;;;;;;;;;;;;;5114583;28;20379;-60
2021/01/30 06:23:01;;;;;;;;;;;;;;;;;;5107101;27;19986;-61
2021/01/30 06:25:27;;;;;;;;;;;;;;;;;;5094368;28;20008;-61
2021/01/30 06:27:53;;;;;;;;;;;;;;;;;;5094393;28;19922;-63
2021/01/30 06:30:19;;;;;;;;;;;;;;;;;;5094246;28;19904;-63
2021/01/30 06:32:45;;;;;;;;;;;;;;;;;;5094327;28;19918;-63
2021/01/30 06:35:11;;;;;;;;;;;;;;;;;;5094120;28;19969;-64
2021/01/30 06:37:37;;;;;;;;;;;;;;;;;;5094354;28;19921;-62
2021/01/30 06:40:03;;;;;;;;;;;;;;;;;;5094589;28;20379;-63
2021/01/30 06:42:29;;;;;;;;;;;;;;;;;;5093926;28;19989;-63
2021/01/30 06:44:54;;;;;;;;;;;;;;;;;;5093998;28;19904;-63
2021/01/30 06:47:20;;;;;;;;;;;;;;;;;;5094028;28;19949;-62
2021/01/30 06:49:46;;;;;;;;;;;;;;;;;;5093927;28;20463;-63
2021/01/30 06:52:12;;;;;;;;;;;;;;;;;;5094110;28;19958;-62
2021/01/30 06:54:38;;;;;;;;;;;;;;;;;;5094115;28;19998;-63
2021/01/30 06:57:04;;;;;;;;;;;;;;;;;;5093863;28;19940;-63
2021/01/30 06:59:30;;;;;;;;;;;;;;;;;;5093833;28;19970;-62
2021/01/30 07:01:57;;;;;;;;;;;;;;;;;;5096569;28;20400;-61
2021/01/30 07:04:23;;;;;;;;;;;;;;;;;;5122010;27;19923;-61
2021/01/30 07:06:49;;;;;;;;;;;;;;;;;;5128489;27;19980;-61
2021/01/30 07:09:15;;;;;;;;;;;;;;;;;;5141071;27;20357;-60
2021/01/30 07:11:41;;;;;;;;;;;;;;;;;;5141360;27;19972;-61
2021/01/30 07:14:07;;;;;;;;;;;;;;;;;;5141347;27;19942;-61
2021/01/30 07:16:33;;;;;;;;;;;;;;;;;;5141524;27;19921;-61
2021/01/30 07:18:59;;;;;;;;;;;;;;;;;;5129729;27;20064;-61
2021/01/30 07:21:25;;;;;;;;;;;;;;;;;;5115747;27;19982;-61
2021/01/30 07:23:51;;;;;;;;;;;;;;;;;;5110147;28;19949;-61
2021/01/30 07:26:17;;;;;;;;;;;;;;;;;;5087874;28;19918;-61
2021/01/30 07:28:43;;;;;;;;;;;;;;;;;;5106739;28;20359;-62
2021/01/30 07:31:09;;;;;;;;;;;;;;;;;;5100726;28;19963;-63
2021/01/30 07:33:35;;;;;;;;;;;;;;;;;;5100198;28;20288;-63
2021/01/30 07:36:01;;;;;;;;;;;;;;;;;;5100215;28;19922;-62
2021/01/30 07:38:29;;;;;;;;;;;;;;;;;;5100138;28;19913;-62
2021/01/30 07:40:54;;;;;;;;;;;;;;;;;;5100451;28;19923;-62
2021/01/30 07:43:20;;;;;;;;;;;;;;;;;;5101352;28;20289;-62
2021/01/30 07:45:46;;;;;;;;;;;;;;;;;;5110793;28;19923;-61
2021/01/30 07:48:12;;;;;;;;;;;;;;;;;;5121027;27;19967;-61
2021/01/30 07:50:38;;;;;;;;;;;;;;;;;;5121759;27;20259;-62
2021/01/30 07:53:04;;;;;;;;;;;;;;;;;;5117666;27;19908;-61
2021/01/30 07:55:30;;;;;;;;;;;;;;;;;;5106038;28;20023;-61
2021/01/30 07:57:56;;;;;;;;;;;;;;;;;;5111169;28;19996;-62
2021/01/30 08:00:22;;;;;;;;;;;;;;;;;;5109014;28;19980;-62
2021/01/30 08:02:48;;;;;;;;;;;;;;;;;;5103929;28;20325;-61
2021/01/30 08:05:14;;;;;;;;;;;;;;;;;;5106712;28;20030;-62
2021/01/30 08:07:40;;;;;;;;;;;;;;;;;;5113592;28;19912;-61
2021/01/30 08:10:06;;;;;;;;;;;;;;;;;;5107632;28;20427;-61
2021/01/30 08:12:32;;;;;;;;;;;;;;;;;;5103952;28;19954;-62
2021/01/30 08:14:58;;;;;;;;;;;;;;;;;;5118327;28;19967;-62
2021/01/30 08:17:24;;;;;;;;;;;;;;;;;;5117028;28;19916;-62
2021/01/30 08:19:50;;;;;;;;;;;;;;;;;;5117400;28;19976;-62
2021/01/30 08:22:16;;;;;;;;;;;;;;;;;;5116890;28;20249;-62
2021/01/30 08:24:45;;;;;;;;;;;;;;;;;;5117245;28;19986;-63
2021/01/30 08:27:11;;;;;;;;;;;;;;;;;;5116872;28;20374;-62
2021/01/30 08:29:37;;;;;;;;;;;;;;;;;;5116910;28;19904;-62
2021/01/30 08:32:03;;;;;;;;;;;;;;;;;;5116846;28;19911;-62
2021/01/30 08:34:30;;;;;;;;;;;;;;;;;;5116598;28;20023;-62
2021/01/30 08:36:56;;;;;;;;;;;;;;;;;;5116687;28;19947;-62
2021/01/30 08:39:22;;;;;;;;;;;;;;;;;;5114532;28;19908;-63
2021/01/30 08:41:48;;;;;;;;;;;;;;;;;;5104931;28;19969;-64
2021/01/30 08:44:14;;;;;;;;;;;;;;;;;;5116494;28;19995;-64
2021/01/30 08:46:41;;;;;;;;;;;;;;;;;;5116327;28;19995;-64
2021/01/30 08:49:07;;;;;;;;;;;;;;;;;;5116709;28;19903;-64
2021/01/30 08:51:33;;;;;;;;;;;;;;;;;;5116405;28;20245;-63
2021/01/30 08:53:59;;;;;;;;;;;;;;;;;;5116290;28;20039;-64
2021/01/30 08:56:25;;;;;;;;;;;;;;;;;;5110798;28;19904;-64
2021/01/30 08:58:51;;;;;;;;;;;;;;;;;;5095807;28;19908;-64
2021/01/30 09:01:17;;;;;;;;;;;;;;;;;;5095819;28;20364;-64
2021/01/30 09:03:44;;;;;;;;;;;;;;;;;;5086648;28;19908;-63
2021/01/30 09:06:10;;;;;;;;;;;;;;;;;;5114994;28;19903;-64
2021/01/30 09:08:36;;;;;;;;;;;;;;;;;;5115718;28;20241;-64
2021/01/30 09:11:02;;;;;;;;;;;;;;;;;;5115533;28;19916;-63
2021/01/30 09:13:28;;;;;;;;;;;;;;;;;;5115577;28;19904;-64
2021/01/30 09:15:54;;;;;;;;;;;;;;;;;;5115685;28;20301;-63
2021/01/30 09:18:20;;;;;;;;;;;;;;;;;;5115486;28;19956;-64
2021/01/30 09:20:46;;;;;;;;;;;;;;;;;;5115914;28;19907;-64
2021/01/30 09:23:12;;;;;;;;;;;;;;;;;;5115756;28;19971;-63
2021/01/30 09:25:38;;;;;;;;;;;;;;;;;;5115286;28;19911;-64
2021/01/30 09:28:04;;;;;;;;;;;;;;;;;;5115694;28;19948;-65
2021/01/30 09:30:30;;;;;;;;;;;;;;;;;;5116023;28;19904;-64
2021/01/30 09:32:56;;;;;;;;;;;;;;;;;;5115895;28;19991;-65
2021/01/30 09:35:21;;;;;;;;;;;;;;;;;;5115451;28;20371;-64
2021/01/30 09:37:47;;;;;;;;;;;;;;;;;;5115498;28;19910;-64
2021/01/30 09:40:14;;;;;;;;;;;;;;;;;;5115827;28;19957;-63
2021/01/30 09:42:39;;;;;;;;;;;;;;;;;;5115419;28;19904;-64
2021/01/30 09:45:05;;;;;;;;;;;;;;;;;;5115287;28;19903;-64
2021/01/30 09:47:31;;;;;;;;;;;;;;;;;;5115274;28;19904;-63
2021/01/30 09:49:57;;;;;;;;;;;;;;;;;;5115211;28;19911;-63
2021/01/30 09:52:23;;;;;;;;;;;;;;;;;;5115549;28;19910;-63
2021/01/30 09:54:49;;;;;;;;;;;;;;;;;;5115050;28;20318;-64
2021/01/30 09:57:15;;;;;;;;;;;;;;;;;;5115492;28;19904;-64
2021/01/30 09:59:41;;;;;;;;;;;;;;;;;;5115337;28;20006;-64
2021/01/30 10:02:07;;;;;;;;;;;;;;;;;;5115026;28;20372;-64
2021/01/30 10:04:33;;;;;;;;;;;;;;;;;;5114964;28;19939;-63
2021/01/30 10:06:59;;;;;;;;;;;;;;;;;;5115136;28;19904;-64
2021/01/30 10:09:25;;;;;;;;;;;;;;;;;;5115089;28;19965;-64
2021/01/30 10:11:51;;;;;;;;;;;;;;;;;;5114885;28;20394;-64
2021/01/30 10:14:19;;;;;;;;;;;;;;;;;;5114682;28;19915;-64
2021/01/30 10:16:45;;;;;;;;;;;;;;;;;;5114990;28;20360;-64
2021/01/30 10:19:11;;;;;;;;;;;;;;;;;;5114798;28;19904;-64
2021/01/30 10:21:37;;;;;;;;;;;;;;;;;;5114870;28;20006;-63
2021/01/30 10:24:03;;;;;;;;;;;;;;;;;;5114639;28;20024;-64
2021/01/30 10:26:29;;;;;;;;;;;;;;;;;;5114613;28;19903;-64
2021/01/30 10:28:55;;;;;;;;;;;;;;;;;;5114927;28;20026;-64
2021/01/30 10:31:21;;;;;;;;;;;;;;;;;;5114463;28;20288;-64
2021/01/30 10:33:47;;;;;;;;;;;;;;;;;;5114420;28;19904;-64
2021/01/30 10:36:13;;;;;;;;;;;;;;;;;;5114390;28;19911;-63
2021/01/30 10:38:39;;;;;;;;;;;;;;;;;;5113896;28;19904;-63
2021/01/30 10:41:05;;;;;;;;;;;;;;;;;;5114448;28;19926;-63
2021/01/30 10:43:31;;;;;;;;;;;;;;;;;;5114327;28;19907;-64
2021/01/30 10:45:57;;;;;;;;;;;;;;;;;;5114666;28;19999;-63
2021/01/30 10:48:23;;;;;;;;;;;;;;;;;;5114626;28;20264;-63
2021/01/30 10:50:49;;;;;;;;;;;;;;;;;;5114195;28;19904;-63
2021/01/30 10:53:15;;;;;;;;;;;;;;;;;;5114488;28;19956;-64
2021/01/30 10:55:41;;;;;;;;;;;;;;;;;;5114063;28;19916;-64
2021/01/30 10:58:07;;;;;;;;;;;;;;;;;;5114518;28;19911;-64
2021/01/30 11:00:33;;;;;;;;;;;;;;;;;;5114102;28;20267;-64
2021/01/30 11:02:59;;;;;;;;;;;;;;;;;;5114235;28;19994;-64
2021/01/30 11:05:25;;;;;;;;;;;;;;;;;;5114374;28;19929;-64
2021/01/30 11:07:51;;;;;;;;;;;;;;;;;;5114126;28;19903;-64
2021/01/30 11:10:18;;;;;;;;;;;;;;;;;;5113989;28;19915;-64
2021/01/30 11:12:44;;;;;;;;;;;;;;;;;;5114331;28;20416;-64
2021/01/30 11:15:10;;;;;;;;;;;;;;;;;;5114498;28;19912;-64
2021/01/30 11:17:36;;;;;;;;;;;;;;;;;;5114291;28;20364;-64
2021/01/30 11:20:02;;;;;;;;;;;;;;;;;;5113895;28;19904;-64
2021/01/30 11:22:28;;;;;;;;;;;;;;;;;;5113944;28;19904;-64
2021/01/30 11:24:54;;;;;;;;;;;;;;;;;;5113794;28;19904;-63
2021/01/30 11:27:19;;;;;;;;;;;;;;;;;;5114224;28;19998;-65
2021/01/30 11:29:45;;;;;;;;;;;;;;;;;;5113826;28;20279;-64
2021/01/30 11:32:11;;;;;;;;;;;;;;;;;;5114054;28;19949;-64
2021/01/30 11:34:37;;;;;;;;;;;;;;;;;;5113990;28;19919;-64
2021/01/30 11:37:03;;;;;;;;;;;;;;;;;;5113725;28;19904;-64
2021/01/30 11:39:29;;;;;;;;;;;;;;;;;;5113662;28;19908;-64
2021/01/30 11:41:55;;;;;;;;;;;;;;;;;;5113923;28;19938;-64
2021/01/30 11:44:21;;;;;;;;;;;;;;;;;;5113835;28;19942;-64
2021/01/30 11:46:47;;;;;;;;;;;;;;;;;;5113600;28;19904;-64
2021/01/30 11:49:13;;;;;;;;;;;;;;;;;;5115041;28;20390;-64
2021/01/30 11:51:39;;;;;;;;;;;;;;;;;;5117398;28;19903;-64
2021/01/30 11:54:05;;;;;;;;;;;;;;;;;;5117515;28;19926;-65
2021/01/30 11:56:31;;;;;;;;;;;;;;;;;;5117723;28;19903;-64
2021/01/30 11:58:57;;;;;;;;;;;;;;;;;;5117522;28;19956;-65
2021/01/30 12:01:24;;;;;;;;;;;;;;;;;;5117458;28;19903;-64
2021/01/30 12:03:49;;;;;;;;;;;;;;;;;;5117427;28;19903;-64
2021/01/30 12:06:16;;;;;;;;;;;;;;;;;;5117336;28;20002;-64
2021/01/30 12:08:42;;;;;;;;;;;;;;;;;;5117211;28;19904;-64
2021/01/30 12:11:10;;;;;;;;;;;;;;;;;;5117258;28;20291;-64
2021/01/30 12:13:36;;;;;;;;;;;;;;;;;;5117467;28;19926;-64
2021/01/30 12:16:02;;;;;;;;;;;;;;;;;;5117240;28;19904;-64
2021/01/30 12:18:29;;;;;;;;;;;;;;;;;;5117443;28;20273;-64
2021/01/30 12:20:55;;;;;;;;;;;;;;;;;;5116982;28;19910;-64
2021/01/30 12:23:21;;;;;;;;;;;;;;;;;;5117055;28;19912;-64
2021/01/30 12:25:47;;;;;;;;;;;;;;;;;;5117061;28;19986;-64
2021/01/30 12:28:13;;;;;;;;;;;;;;;;;;5117243;28;19943;-64
2021/01/30 12:30:39;;;;;;;;;;;;;;;;;;5116886;28;20420;-61
2021/01/30 12:33:05;;;;;;;;;;;;;;;;;;5116986;28;19911;-60
2021/01/30 12:35:31;;;;;;;;;;;;;;;;;;5116826;28;19961;-64
2021/01/30 12:37:57;;;;;;;;;;;;;;;;;;5116748;28;19911;-64
2021/01/30 12:40:23;;;;;;;;;;;;;;;;;;5116729;28;19911;-64
2021/01/30 12:42:48;;;;;;;;;;;;;;;;;;5116726;28;19904;-64
2021/01/30 12:45:14;;;;;;;;;;;;;;;;;;5116610;28;19903;-64
2021/01/30 12:47:41;;;;;;;;;;;;;;;;;;5116759;28;19914;-64
2021/01/30 12:50:07;;;;;;;;;;;;;;;;;;5116565;28;19910;-64
2021/01/30 12:52:33;;;;;;;;;;;;;;;;;;5116841;28;19947;-64
2021/01/30 12:54:58;;;;;;;;;;;;;;;;;;5116319;28;19918;-64
2021/01/30 12:57:24;;;;;;;;;;;;;;;;;;5116363;28;19904;-64
2021/01/30 12:59:50;;;;;;;;;;;;;;;;;;5116354;28;19941;-64
2021/01/30 13:02:16;;;;;;;;;;;;;;;;;;5115594;28;20249;-64
2021/01/30 13:04:42;;;;;;;;;;;;;;;;;;5116458;28;19903;-64
2021/01/30 13:07:08;;;;;;;;;;;;;;;;;;5116144;28;19951;-64
2021/01/30 13:09:34;;;;;;;;;;;;;;;;;;5116565;28;19954;-63
2021/01/30 13:12:00;;;;;;;;;;;;;;;;;;5097847;28;19954;-64
2021/01/30 13:14:26;;;;;;;;;;;;;;;;;;5116015;28;19916;-64
2021/01/30 13:16:52;;;;;;;;;;;;;;;;;;5116232;28;19937;-64
2021/01/30 13:19:18;;;;;;;;;;;;;;;;;;5112688;28;19911;-63
2021/01/30 13:21:44;;;;;;;;;;;;;;;;;;5109099;22;19920;-60
2021/01/30 13:24:10;;;;;;;;;;;;;;;;;;5046731;28;19915;-60
2021/01/30 13:26:38;;;;;;;;;;;;;;;;;;5074579;28;19908;-60
2021/01/30 13:29:04;;;;;;;;;;;;;;;;;;5075237;28;19971;-60
2021/01/30 13:31:30;;;;;;;;;;;;;;;;;;5073425;28;20435;-59
2021/01/30 13:33:56;;;;;;;;;;;;;;;;;;5072813;28;19920;-61
2021/01/30 13:36:22;;;;;;;;;;;;;;;;;;5069965;28;20006;-59
2021/01/30 13:38:48;;;;;;;;;;;;;;;;;;5072324;28;20430;-60
2021/01/30 13:41:14;;;;;;;;;;;;;;;;;;5074538;28;19958;-61
2021/01/30 13:43:40;;;;;;;;;;;;;;;;;;5073770;28;19904;-60
2021/01/30 13:46:06;;;;;;;;;;;;;;;;;;5069957;28;20281;-59
2021/01/30 13:48:32;;;;;;;;;;;;;;;;;;5069652;28;19914;-59
2021/01/30 13:50:58;;;;;;;;;;;;;;;;;;5068949;28;19912;-60
2021/01/30 13:53:24;;;;;;;;;;;;;;;;;;5071345;28;19912;-59
2021/01/30 13:55:50;;;;;;;;;;;;;;;;;;5071842;28;20392;-60
2021/01/30 13:58:16;;;;;;;;;;;;;;;;;;5072618;28;19996;-59
2021/01/30 14:00:42;;;;;;;;;;;;;;;;;;5072520;28;20391;-61
2021/01/30 14:03:08;;;;;;;;;;;;;;;;;;5072022;28;19915;-60
2021/01/30 14:05:34;;;;;;;;;;;;;;;;;;5074392;28;19904;-60
2021/01/30 14:08:00;;;;;;;;;;;;;;;;;;5056392;28;19971;-60
2021/01/30 14:10:26;;;;;;;;;;;;;;;;;;5074376;28;19979;-61
2021/01/30 14:12:52;;;;;;;;;;;;;;;;;;5074253;28;19905;-60
2021/01/30 14:15:18;;;;;;;;;;;;;;;;;;5074366;28;19958;-60
2021/01/30 14:17:44;;;;;;;;;;;;;;;;;;5072622;28;19970;-60
2021/01/30 14:20:11;;;;;;;;;;;;;;;;;;5069704;28;19916;-59
2021/01/30 14:22:37;;;;;;;;;;;;;;;;;;5071331;28;19969;-58
2021/01/30 14:25:03;;;;;;;;;;;;;;;;;;5070859;28;19916;-58
2021/01/30 14:27:29;;;;;;;;;;;;;;;;;;5068038;28;20006;-59
2021/01/30 14:29:57;;;;;;;;;;;;;;;;;;5073446;28;19974;-60
2021/01/30 14:32:23;;;;;;;;;;;;;;;;;;5073889;28;19999;-59
2021/01/30 14:34:49;;;;;;;;;;;;;;;;;;5072294;28;20079;-58
2021/01/30 14:37:15;;;;;;;;;;;;;;;;;;5069438;28;19908;-58
2021/01/30 14:39:41;;;;;;;;;;;;;;;;;;5071132;28;19917;-59
2021/01/30 14:42:07;;;;;;;;;;;;;;;;;;5071318;28;20431;-59
2021/01/30 14:44:33;;;;;;;;;;;;;;;;;;5071288;28;20390;-58
2021/01/30 14:46:59;;;;;;;;;;;;;;;;;;5070791;28;19908;-59
2021/01/30 14:49:26;;;;;;;;;;;;;;;;;;5071793;28;19914;-60
2021/01/30 14:51:52;;;;;;;;;;;;;;;;;;5068583;28;20272;-60
2021/01/30 14:54:18;;;;;;;;;;;;;;;;;;5069528;28;19916;-58
2021/01/30 14:56:44;;;;;;;;;;;;;;;;;;5065027;28;19905;-60
2021/01/30 14:59:10;;;;;;;;;;;;;;;;;;5052706;28;19904;-60
2021/01/30 15:01:36;;;;;;;;;;;;;;;;;;5064862;28;20006;-60
2021/01/30 15:04:02;;;;;;;;;;;;;;;;;;5053162;28;20352;-60
2021/01/30 15:06:28;;;;;;;;;;;;;;;;;;5071953;28;19908;-60
2021/01/30 15:08:54;;;;;;;;;;;;;;;;;;5070979;28;19911;-60
2021/01/30 15:11:19;;;;;;;;;;;;;;;;;;5071658;28;20351;-60
2021/01/30 15:13:45;;;;;;;;;;;;;;;;;;5071845;28;19909;-60
2021/01/30 15:16:11;;;;;;;;;;;;;;;;;;5053835;28;19911;-60
2021/01/30 15:18:38;;;;;;;;;;;;;;;;;;5071917;28;20403;-60
2021/01/30 15:21:05;;;;;;;;;;;;;;;;;;5071943;28;19923;-61
2021/01/30 15:23:31;;;;;;;;;;;;;;;;;;5071833;28;19926;-60
2021/01/30 15:25:57;;;;;;;;;;;;;;;;;;5075758;28;19942;-60
2021/01/30 15:28:23;;;;;;;;;;;;;;;;;;5073691;28;19916;-61
2021/01/30 15:30:49;;;;;;;;;;;;;;;;;;5065078;28;19911;-61
2021/01/30 15:33:15;;;;;;;;;;;;;;;;;;5074988;28;19911;-61
2021/01/30 15:35:41;;;;;;;;;;;;;;;;;;5075317;28;19923;-61
2021/01/30 15:38:07;;;;;;;;;;;;;;;;;;5075723;28;19954;-61
2021/01/30 15:40:33;;;;;;;;;;;;;;;;;;5075503;28;19910;-61
2021/01/30 15:43:01;;;;;;;;;;;;;;;;;;5075683;28;20353;-60
2021/01/30 15:45:27;;;;;;;;;;;;;;;;;;5075625;28;19942;-61
2021/01/30 15:47:53;;;;;;;;;;;;;;;;;;5074745;28;20284;-60
2021/01/30 15:50:19;;;;;;;;;;;;;;;;;;5074911;28;20016;-61
2021/01/30 15:52:45;;;;;;;;;;;;;;;;;;5073729;28;19908;-60
2021/01/30 15:55:11;;;;;;;;;;;;;;;;;;5074656;28;20323;-59
2021/01/30 15:57:37;;;;;;;;;;;;;;;;;;5075337;28;19999;-60
2021/01/30 16:00:03;;;;;;;;;;;;;;;;;;5075011;28;19904;-59
2021/01/30 16:02:29;;;;;;;;;;;;;;;;;;5075061;28;19904;-60
2021/01/30 16:04:55;;;;;;;;;;;;;;;;;;5074690;28;19909;-61
2021/01/30 16:07:21;;;;;;;;;;;;;;;;;;5075330;28;20299;-58
2021/01/30 16:09:48;;;;;;;;;;;;;;;;;;5075094;28;19940;-60
2021/01/30 16:12:14;;;;;;;;;;;;;;;;;;5074885;28;19912;-60
2021/01/30 16:14:40;;;;;;;;;;;;;;;;;;5074418;28;19935;-61
2021/01/30 16:17:06;;;;;;;;;;;;;;;;;;5074842;28;19911;-60
2021/01/30 16:19:32;;;;;;;;;;;;;;;;;;5074857;28;20384;-60
2021/01/30 16:21:58;;;;;;;;;;;;;;;;;;5074695;28;20609;-60
2021/01/30 16:24:24;;;;;;;;;;;;;;;;;;5068131;28;19912;-60
2021/01/30 16:26:50;;;;;;;;;;;;;;;;;;5074448;28;19915;-59
2021/01/30 16:29:16;;;;;;;;;;;;;;;;;;5074993;28;20007;-60
2021/01/30 16:31:42;;;;;;;;;;;;;;;;;;5073565;28;20493;-58
2021/01/30 16:34:08;;;;;;;;;;;;;;;;;;5074441;28;20384;-60
2021/01/30 16:36:34;;;;;;;;;;;;;;;;;;5064578;28;19950;-60